Time;durP1;ratioP1;P1;durP2;ratioP2;P2;SDS_P1;SDS_P2;PMS_P1;PMS_P2;Temp;Humidity;BMP_temperature;BMP_pressure;BME280_temperature;BME280_humidity;BME280_pressure;Samples;Min_cycle;Max_cycle;Signal;HPM_P1;HPM_P2
2023/01/11 00:00:18;;;;;;;20.17;9.80;;;5.00;99.90;;;;;;2603064;54;20097;31
2023/01/11 00:02:57;;;;;;;17.58;11.15;;;5.00;99.90;;;;;;2603462;54;20022;31
2023/01/11 00:05:31;;;;;;;21.60;10.07;;;5.00;99.90;;;;;;2602864;54;20097;31
2023/01/11 00:08:10;;;;;;;15.43;8.80;;;4.90;99.90;;;;;;2603294;54;20152;31
2023/01/11 00:10:45;;;;;;;17.47;9.73;;;4.90;99.90;;;;;;2621926;46;20926;31
2023/01/11 00:13:20;;;;;;;18.15;9.68;;;4.90;99.90;;;;;;2603343;54;20290;31
2023/01/11 00:15:55;;;;;;;20.20;9.37;;;4.90;99.90;;;;;;2603230;54;21008;31
2023/01/11 00:18:30;;;;;;;15.43;8.55;;;4.90;99.90;;;;;;2621581;46;20062;31
2023/01/11 00:21:06;;;;;;;18.20;9.70;;;4.90;99.90;;;;;;2603089;54;20052;31
2023/01/11 00:23:43;;;;;;;19.10;9.25;;;4.90;99.90;;;;;;2603076;54;20077;31
2023/01/11 00:26:18;;;;;;;18.55;9.85;;;4.90;99.90;;;;;;2621894;46;20038;31
2023/01/11 00:28:52;;;;;;;16.20;9.13;;;4.80;99.90;;;;;;2603070;54;20023;31
2023/01/11 00:31:27;;;;;;;16.60;8.45;;;4.80;99.90;;;;;;2603479;54;20830;31
2023/01/11 00:34:02;;;;;;;19.55;8.73;;;4.80;99.90;;;;;;2602262;54;20060;31
2023/01/11 00:36:37;;;;;;;18.70;8.75;;;4.70;99.90;;;;;;2603109;54;20030;31
2023/01/11 00:39:15;;;;;;;18.88;8.57;;;4.70;99.90;;;;;;2603174;54;21098;31
2023/01/11 00:50:11;;;;;;;14.60;7.75;;;4.50;99.90;;;;;;2603197;54;20965;31
2023/01/11 00:52:45;;;;;;;;;;;4.40;99.90;;;;;;2603366;54;20018;31
2023/01/11 00:55:22;;;;;;;16.60;7.63;;;4.40;99.90;;;;;;2603042;54;19938;31
2023/01/11 00:57:57;;;;;;;17.73;7.25;;;4.40;99.90;;;;;;2603056;54;20591;31
2023/01/11 01:00:31;;;;;;;15.23;8.47;;;4.20;99.90;;;;;;2602899;54;20034;31
2023/01/11 01:03:07;;;;;;;19.58;8.93;;;4.20;99.90;;;;;;2602850;54;20844;31
2023/01/11 01:05:42;;;;;;;15.80;8.90;;;4.20;99.90;;;;;;2603183;54;20809;31
2023/01/11 01:08:19;;;;;;;15.88;9.35;;;4.10;99.90;;;;;;2602810;54;20022;31
2023/01/11 01:10:52;;;;;;;17.80;10.30;;;4.10;99.90;;;;;;2603146;54;20958;31
2023/01/11 01:16:16;;;;;;;13.95;9.20;;;4.00;99.90;;;;;;2603896;54;20146;31
2023/01/11 01:18:52;;;;;;;20.10;9.23;;;3.90;99.90;;;;;;2603931;54;20038;31
2023/01/11 01:21:27;;;;;;;17.08;9.35;;;3.90;99.90;;;;;;2603703;54;20911;31
2023/01/11 01:24:02;;;;;;;15.60;8.00;;;3.80;99.90;;;;;;2603782;54;20893;31
2023/01/11 01:26:37;;;;;;;16.83;8.32;;;3.80;99.90;;;;;;2621964;46;20836;31
2023/01/11 01:29:18;;;;;;;16.35;8.70;;;3.80;99.90;;;;;;2603548;54;20104;31
2023/01/11 01:31:52;;;;;;;15.95;8.52;;;3.70;99.90;;;;;;2603714;54;20101;31
2023/01/11 01:34:26;;;;;;;16.50;8.05;;;3.70;99.90;;;;;;2603662;54;20924;31
2023/01/11 01:37:01;;;;;;;21.70;8.68;;;3.70;99.90;;;;;;2604018;54;20835;31
2023/01/11 01:39:36;;;;;;;15.10;8.30;;;3.60;99.90;;;;;;2603722;54;20177;31
2023/01/11 01:42:10;;;;;;;15.60;7.03;;;3.60;99.90;;;;;;2603853;54;20050;31
2023/01/11 01:44:58;;;;;;;13.17;6.27;;;3.60;99.90;;;;;;2603752;54;20885;31
2023/01/11 01:47:32;;;;;;;12.90;6.80;;;3.50;99.90;;;;;;2603680;54;21096;31
2023/01/11 01:50:10;;;;;;;14.20;6.30;;;3.50;99.90;;;;;;2603664;54;20033;31
2023/01/11 01:52:45;;;;;;;11.20;5.97;;;3.50;99.90;;;;;;2603727;54;20866;31
2023/01/11 01:55:24;;;;;;;10.52;5.78;;;3.50;99.90;;;;;;2603671;54;20074;31
2023/01/11 01:57:57;;;;;;;13.57;5.97;;;3.50;99.90;;;;;;2603697;54;20033;31
2023/01/11 02:00:35;;;;;;;12.88;4.85;;;3.50;99.90;;;;;;2603748;54;20148;31
2023/01/11 02:03:11;;;;;;;9.80;4.65;;;3.40;99.90;;;;;;2603835;54;20922;31
2023/01/11 02:05:45;;;;;;;10.25;5.20;;;3.40;99.90;;;;;;2603600;54;20081;31
2023/01/11 02:08:22;;;;;;;10.77;3.95;;;3.40;99.90;;;;;;2603573;54;20125;31
2023/01/11 02:10:57;;;;;;;8.57;3.78;;;3.40;99.90;;;;;;2603743;54;20085;31
2023/01/11 02:16:10;;;;;;;11.60;4.93;;;3.30;99.90;;;;;;2603682;54;20026;31
2023/01/11 02:18:45;;;;;;;12.48;5.63;;;3.40;99.90;;;;;;2603891;54;20029;31
2023/01/11 02:21:24;;;;;;;14.53;6.00;;;3.30;99.90;;;;;;2603358;54;20927;31
2023/01/11 02:24:19;;;;;;;17.58;6.70;;;3.30;99.90;;;;;;2602938;54;20257;31
2023/01/11 02:27:22;;;;;;;14.20;6.07;;;3.30;99.90;;;;;;2603752;54;20022;31
2023/01/11 02:29:54;;;;;;;10.60;5.75;;;3.20;99.90;;;;;;2626266;39;22364;31
2023/01/11 02:32:34;;;;;;;10.40;5.65;;;3.20;99.90;;;;;;2603630;54;20033;31
2023/01/11 02:35:08;;;;;;;9.55;4.30;;;3.10;99.90;;;;;;2603607;54;20068;31
2023/01/11 02:37:47;;;;;;;13.18;5.15;;;3.10;99.90;;;;;;2603712;54;20839;31
2023/01/11 02:40:25;;;;;;;12.93;6.18;;;3.10;99.90;;;;;;2603704;54;20050;31
2023/01/11 02:45:52;;;;;;;10.53;5.53;;;3.00;99.90;;;;;;2603707;54;20085;31
2023/01/11 02:48:33;;;;;;;19.52;6.18;;;3.10;99.90;;;;;;2603703;54;21231;31
2023/01/11 02:51:09;;;;;;;15.80;5.93;;;3.10;99.90;;;;;;2621860;46;20042;31
2023/01/11 02:53:46;;;;;;;10.10;4.30;;;3.10;99.90;;;;;;2603707;54;20026;31
2023/01/11 02:56:22;;;;;;;14.95;4.97;;;3.10;99.90;;;;;;2773532;31;21452;31
2023/01/11 02:58:57;;;;;;;18.42;6.65;;;3.10;99.90;;;;;;2603471;54;20093;31
2023/01/11 03:01:32;;;;;;;11.07;5.68;;;3.00;99.90;;;;;;2603417;54;19964;31
2023/01/11 03:04:28;;;;;;;12.02;5.00;;;3.00;99.90;;;;;;2603621;54;20033;31
2023/01/11 03:07:15;;;;;;;9.65;4.68;;;3.00;99.90;;;;;;2603532;54;20852;31
2023/01/11 03:09:57;;;;;;;11.10;4.25;;;2.90;99.90;;;;;;2603535;54;20852;31
2023/01/11 03:15:52;;;;;;;13.10;5.30;;;2.90;99.90;;;;;;2603635;54;20876;31
2023/01/11 03:18:32;;;;;;;11.83;4.87;;;2.90;99.90;;;;;;2603546;54;20087;31
2023/01/11 03:21:14;;;;;;;13.60;5.80;;;2.90;99.90;;;;;;2621310;46;20251;31
2023/01/11 03:23:53;;;;;;;13.32;5.97;;;2.80;99.90;;;;;;2603601;54;20001;31
2023/01/11 03:26:33;;;;;;;16.25;6.45;;;2.80;99.90;;;;;;2603581;54;20113;31
2023/01/11 03:29:12;;;;;;;12.57;6.22;;;2.80;99.90;;;;;;2621894;46;20022;31
2023/01/11 03:31:50;;;;;;;15.50;6.60;;;2.80;99.90;;;;;;2603548;54;19934;31
2023/01/11 03:34:29;;;;;;;14.00;6.40;;;2.70;99.90;;;;;;2602717;54;20022;31
2023/01/11 03:37:07;;;;;;;13.87;7.47;;;2.70;99.90;;;;;;2603247;54;20960;31
2023/01/11 03:39:44;;;;;;;11.30;5.57;;;2.70;99.90;;;;;;2603262;54;20258;31
2023/01/11 03:42:19;;;;;;;13.70;6.67;;;2.70;99.90;;;;;;2603236;54;20033;31
2023/01/11 03:44:55;;;;;;;15.10;6.80;;;2.80;99.90;;;;;;2603482;54;20262;31
2023/01/11 03:47:27;;;;;;;;;;;2.80;99.90;;;;;;2610550;39;21133;31
2023/01/11 03:50:03;;;;;;;12.03;6.37;;;2.80;99.90;;;;;;2603105;54;19990;31
2023/01/11 03:52:41;;;;;;;15.45;6.85;;;2.70;99.90;;;;;;2603273;54;20269;31
2023/01/11 03:55:16;;;;;;;12.52;6.75;;;2.70;99.90;;;;;;2603302;54;20853;31
2023/01/11 03:57:51;;;;;;;16.70;7.45;;;2.70;99.90;;;;;;2603402;54;20804;31
2023/01/11 04:00:26;;;;;;;17.00;7.22;;;2.70;99.90;;;;;;2603266;54;20029;31
2023/01/11 04:03:01;;;;;;;15.55;7.45;;;2.70;99.90;;;;;;2603215;54;20117;31
2023/01/11 04:05:37;;;;;;;18.33;7.82;;;2.70;99.90;;;;;;2603441;54;20057;31
2023/01/11 04:08:15;;;;;;;15.55;7.45;;;2.70;99.90;;;;;;2603484;54;19942;31
2023/01/11 04:10:50;;;;;;;14.95;8.20;;;2.60;99.90;;;;;;2603501;54;20857;31
2023/01/11 04:13:25;;;;;;;14.17;8.70;;;2.70;99.90;;;;;;2603218;54;20033;31
2023/01/11 04:15:59;;;;;;;12.85;7.00;;;2.70;99.90;;;;;;2603317;54;20031;31
2023/01/11 04:18:34;;;;;;;18.23;7.77;;;2.70;99.90;;;;;;2603221;54;20938;31
2023/01/11 04:21:09;;;;;;;19.83;7.23;;;2.70;99.90;;;;;;2603125;54;20049;31
2023/01/11 04:23:46;;;;;;;14.27;7.45;;;2.70;99.90;;;;;;2603040;54;20785;31
2023/01/11 04:26:21;;;;;;;13.33;7.30;;;2.70;99.90;;;;;;2603405;54;20922;31
2023/01/11 04:28:57;;;;;;;19.10;6.97;;;2.70;99.90;;;;;;2602997;54;20250;31
2023/01/11 04:31:32;;;;;;;14.75;6.15;;;2.70;99.90;;;;;;2603452;54;20022;31
2023/01/11 04:34:06;;;;;;;12.35;6.65;;;2.70;99.90;;;;;;2603303;54;20029;31
2023/01/11 04:36:41;;;;;;;12.27;7.00;;;2.70;99.90;;;;;;2603130;54;20847;31
2023/01/11 04:39:19;;;;;;;13.75;7.00;;;2.70;99.90;;;;;;2603241;54;20062;31
2023/01/11 04:44:41;;;;;;;11.40;6.47;;;2.70;99.90;;;;;;2603369;54;20022;31
2023/01/11 04:47:16;;;;;;;12.70;6.95;;;2.70;99.90;;;;;;2617966;46;20026;31
2023/01/11 04:49:50;;;;;;;9.33;5.30;;;2.70;99.90;;;;;;2603045;54;20038;31
2023/01/11 04:52:25;;;;;;;9.55;6.03;;;2.80;99.90;;;;;;2603253;54;21086;31
2023/01/11 04:55:02;;;;;;;11.90;5.68;;;2.70;99.90;;;;;;2603231;54;20045;31
2023/01/11 04:57:37;;;;;;;12.15;6.57;;;2.80;99.90;;;;;;2603208;54;20030;31
2023/01/11 05:00:14;;;;;;;12.90;6.03;;;2.80;99.90;;;;;;2602859;54;20026;31
2023/01/11 05:02:48;;;;;;;13.55;6.60;;;2.80;99.90;;;;;;2602757;54;20093;31
2023/01/11 05:05:23;;;;;;;14.32;6.60;;;2.80;99.90;;;;;;2603126;54;20926;31
2023/01/11 05:07:58;;;;;;;15.67;5.93;;;2.80;99.90;;;;;;2602292;54;20925;31
2023/01/11 05:10:37;;;;;;;13.02;6.85;;;2.80;99.90;;;;;;2603038;54;20262;31
2023/01/11 05:13:11;;;;;;;12.90;7.40;;;2.80;99.90;;;;;;2603205;54;20032;31
2023/01/11 05:15:46;;;;;;;12.38;6.40;;;2.80;99.90;;;;;;2603132;54;20030;31
2023/01/11 05:18:22;;;;;;;12.13;7.20;;;2.80;99.90;;;;;;2603147;54;20837;31
2023/01/11 05:20:56;;;;;;;13.30;7.35;;;2.70;99.90;;;;;;2603366;54;20101;31
2023/01/11 05:23:31;;;;;;;13.05;8.65;;;2.70;99.90;;;;;;2603203;54;20093;31
2023/01/11 05:26:10;;;;;;;11.50;7.60;;;2.70;99.90;;;;;;2602914;54;20064;31
2023/01/11 05:28:45;;;;;;;14.90;8.68;;;2.70;99.90;;;;;;2602742;54;20790;31
2023/01/11 05:31:20;;;;;;;15.02;10.10;;;2.70;99.90;;;;;;2602903;54;20154;31
2023/01/11 05:33:55;;;;;;;14.00;9.10;;;2.70;99.90;;;;;;2602842;54;20161;31
2023/01/11 05:36:29;;;;;;;14.70;9.35;;;2.50;99.90;;;;;;2603049;54;20050;31
2023/01/11 05:39:04;;;;;;;15.30;9.20;;;2.50;99.90;;;;;;2602708;54;20027;31
2023/01/11 05:41:41;;;;;;;14.77;9.68;;;2.40;99.90;;;;;;2603014;54;20037;31
2023/01/11 05:47:03;;;;;;;12.77;7.90;;;2.30;99.90;;;;;;2603124;54;20254;31
2023/01/11 05:49:38;;;;;;;11.37;6.53;;;2.20;99.90;;;;;;2603278;54;20073;31
2023/01/11 05:52:13;;;;;;;12.83;6.10;;;2.20;99.90;;;;;;2621593;47;20794;31
2023/01/11 05:54:47;;;;;;;9.57;5.70;;;2.10;99.90;;;;;;2621600;47;20105;31
2023/01/11 05:57:26;;;;;;;13.05;6.80;;;2.00;99.90;;;;;;2602891;54;20249;31
2023/01/11 06:00:01;;;;;;;15.80;5.80;;;2.00;99.90;;;;;;2622407;46;20158;31
2023/01/11 06:02:39;;;;;;;14.95;5.95;;;2.00;99.90;;;;;;2603751;54;20023;31
2023/01/11 06:05:15;;;;;;;10.75;5.40;;;2.00;99.90;;;;;;2622097;46;20026;31
2023/01/11 06:07:51;;;;;;;16.30;9.53;;;1.90;99.90;;;;;;2603572;54;20046;31
2023/01/11 06:10:29;;;;;;;16.55;7.90;;;1.80;99.90;;;;;;2603618;54;20042;31
2023/01/11 06:15:56;;;;;;;20.75;8.15;;;1.80;99.90;;;;;;2603598;54;20026;31
2023/01/11 06:18:32;;;;;;;15.90;6.50;;;1.80;99.90;;;;;;2603962;54;20022;31
2023/01/11 06:21:08;;;;;;;20.73;7.63;;;1.70;99.90;;;;;;2603884;54;20108;31
2023/01/11 06:23:44;;;;;;;21.52;8.68;;;1.70;99.90;;;;;;2603614;54;20038;31
2023/01/11 06:26:20;;;;;;;16.95;6.72;;;1.70;99.90;;;;;;2603790;54;20121;31
2023/01/11 06:28:58;;;;;;;13.93;6.13;;;1.70;99.90;;;;;;2603676;54;20149;31
2023/01/11 06:31:34;;;;;;;16.48;5.70;;;1.70;99.90;;;;;;2603832;54;20286;31
2023/01/11 06:34:09;;;;;;;19.75;7.10;;;1.70;99.90;;;;;;2603750;54;20105;31
2023/01/11 06:36:45;;;;;;;13.07;5.85;;;1.70;99.90;;;;;;2603798;54;20053;31
2023/01/11 06:39:22;;;;;;;11.95;6.18;;;1.70;99.90;;;;;;2603359;54;20113;31
2023/01/11 06:41:58;;;;;;;11.40;4.95;;;1.70;99.90;;;;;;2603777;54;20838;31
2023/01/11 06:44:36;;;;;;;10.53;3.83;;;1.70;99.90;;;;;;2603841;54;20907;31
2023/01/11 06:47:12;;;;;;;11.30;4.00;;;1.70;99.90;;;;;;2603561;54;20022;31
2023/01/11 06:49:48;;;;;;;11.70;5.10;;;1.70;99.90;;;;;;2603023;54;20935;31
2023/01/11 06:52:24;;;;;;;8.75;4.28;;;1.80;99.90;;;;;;2603492;54;20050;31
2023/01/11 06:54:58;;;;;;;;;;;1.80;99.90;;;;;;2604065;54;20081;31
2023/01/11 06:57:33;;;;;;;9.27;4.35;;;1.80;99.90;;;;;;2603627;54;19942;31
2023/01/11 07:00:13;;;;;;;12.63;5.32;;;1.80;99.90;;;;;;2621875;46;20853;31
2023/01/11 07:02:49;;;;;;;15.23;5.25;;;1.90;99.90;;;;;;2603418;54;20100;31
2023/01/11 07:05:30;;;;;;;13.45;4.75;;;1.90;99.90;;;;;;2617095;46;20153;31
2023/01/11 07:08:10;;;;;;;11.77;4.63;;;1.90;99.90;;;;;;2602562;54;21018;31
2023/01/11 07:10:48;;;;;;;11.95;4.43;;;1.90;99.90;;;;;;2603467;54;19989;31
2023/01/11 07:13:22;;;;;;;6.95;3.80;;;1.90;99.90;;;;;;2603513;54;20034;31
2023/01/11 07:16:03;;;;;;;8.18;3.67;;;2.00;99.90;;;;;;2621798;46;20077;31
2023/01/11 07:18:38;;;;;;;7.30;3.53;;;2.00;99.90;;;;;;2603482;54;20929;31
2023/01/11 07:21:13;;;;;;;9.00;3.90;;;2.10;99.90;;;;;;2621851;46;21096;31
2023/01/11 07:23:49;;;;;;;5.88;3.33;;;2.10;99.90;;;;;;2603379;54;20050;31
2023/01/11 07:26:27;;;;;;;9.80;3.70;;;2.10;99.90;;;;;;2603526;54;20837;31
2023/01/11 07:29:05;;;;;;;7.65;3.40;;;2.20;99.90;;;;;;2603693;54;20825;31
2023/01/11 07:31:43;;;;;;;9.13;3.40;;;2.30;99.90;;;;;;2603484;54;20113;31
2023/01/11 07:34:19;;;;;;;7.50;3.15;;;2.40;99.90;;;;;;2603554;54;20027;31
2023/01/11 07:36:54;;;;;;;8.02;3.80;;;2.70;99.90;;;;;;2603201;54;20026;31
2023/01/11 07:39:30;;;;;;;10.70;3.47;;;3.00;99.90;;;;;;2603607;54;20034;31
2023/01/11 07:45:13;;;;;;;8.02;3.42;;;3.60;99.90;;;;;;2621465;46;22408;31
2023/01/11 07:47:55;;;;;;;10.35;3.25;;;3.90;99.90;;;;;;2603498;54;20027;31
2023/01/11 07:50:30;;;;;;;5.55;2.40;;;4.20;99.90;;;;;;2603369;54;20060;31
2023/01/11 07:53:05;;;;;;;10.20;3.70;;;4.40;99.90;;;;;;2603286;54;20045;31
2023/01/11 07:55:40;;;;;;;5.40;1.80;;;4.60;99.90;;;;;;2603490;54;19934;31
2023/01/11 07:58:15;;;;;;;6.45;2.90;;;4.60;99.90;;;;;;2603281;54;20022;31
2023/01/11 08:00:52;;;;;;;4.78;2.47;;;4.70;99.90;;;;;;2603465;54;20788;31
2023/01/11 08:03:30;;;;;;;7.22;2.95;;;4.80;99.90;;;;;;2603205;54;20081;31
2023/01/11 08:06:06;;;;;;;8.32;2.30;;;5.10;99.90;;;;;;2603344;54;20093;31
2023/01/11 08:08:44;;;;;;;50.23;20.67;;;5.20;99.90;;;;;;2603334;54;20030;31
2023/01/11 08:16:57;;;;;;;8.15;2.95;;;5.00;99.90;;;;;;2603245;54;20907;31
2023/01/11 08:19:39;;;;;;;7.25;2.80;;;5.40;99.90;;;;;;2621608;46;20057;31
2023/01/11 08:22:16;;;;;;;9.10;3.40;;;5.60;99.90;;;;;;2603322;54;20094;31
2023/01/11 08:24:51;;;;;;;11.10;3.28;;;6.00;99.90;;;;;;2603129;54;20026;31
2023/01/11 08:27:28;;;;;;;7.95;3.15;;;6.20;99.90;;;;;;2603080;54;20022;31
2023/01/11 08:30:04;;;;;;;8.52;2.97;;;6.30;99.90;;;;;;2603252;54;20837;31
2023/01/11 08:32:40;;;;;;;13.00;2.70;;;6.30;99.90;;;;;;2603260;54;20030;31
2023/01/11 08:35:20;;;;;;;6.93;2.90;;;6.30;99.90;;;;;;2621457;46;20078;31
2023/01/11 08:37:57;;;;;;;4.77;2.17;;;6.40;99.90;;;;;;2603073;54;20234;31
2023/01/11 08:40:32;;;;;;;7.63;2.85;;;6.40;99.90;;;;;;2621530;46;20113;31
2023/01/11 08:43:09;;;;;;;4.13;2.50;;;6.40;99.90;;;;;;2603013;54;20800;31
2023/01/11 08:45:45;;;;;;;5.35;2.83;;;6.50;99.90;;;;;;2603096;54;20267;31
2023/01/11 08:48:19;;;;;;;10.55;4.80;;;6.60;99.90;;;;;;2603203;54;20913;31
2023/01/11 08:51:00;;;;;;;10.85;5.00;;;6.70;99.90;;;;;;2603139;54;20828;31
2023/01/11 08:53:35;;;;;;;8.05;3.05;;;7.00;99.90;;;;;;2603238;54;20038;31
2023/01/11 08:56:12;;;;;;;8.27;3.05;;;7.10;99.90;;;;;;2603304;54;20892;31
2023/01/11 08:58:49;;;;;;;6.10;2.75;;;7.00;99.90;;;;;;2603022;54;19950;31
2023/01/11 09:01:24;;;;;;;10.85;3.30;;;6.80;99.90;;;;;;2621427;46;20554;31
2023/01/11 09:04:01;;;;;;;9.90;2.80;;;6.60;99.90;;;;;;2602979;54;20909;31
2023/01/11 09:06:52;;;;;;;8.25;3.10;;;6.40;99.90;;;;;;2603155;54;20042;31
2023/01/11 09:09:27;;;;;;;6.32;3.13;;;6.20;99.90;;;;;;2602909;54;20027;31
2023/01/11 09:12:05;;;;;;;7.77;2.77;;;6.00;99.90;;;;;;2603108;54;20144;31
2023/01/11 09:14:40;;;;;;;6.60;2.70;;;6.00;99.90;;;;;;2602986;54;20092;31
2023/01/11 09:17:16;;;;;;;11.70;3.47;;;5.90;99.90;;;;;;2603085;54;20053;31
2023/01/11 09:19:53;;;;;;;5.65;2.30;;;5.90;99.90;;;;;;2621647;47;20881;31
2023/01/11 09:22:32;;;;;;;7.80;3.20;;;5.90;99.90;;;;;;2603106;54;20055;31
2023/01/11 09:25:10;;;;;;;7.57;3.22;;;5.80;99.90;;;;;;2602738;54;20775;31
2023/01/11 09:27:48;;;;;;;6.95;3.47;;;5.80;99.90;;;;;;2602834;54;20022;31
2023/01/11 09:30:24;;;;;;;9.85;3.50;;;5.80;99.90;;;;;;2621625;47;20894;31
2023/01/11 09:32:58;;;;;;;7.28;2.25;;;5.80;99.90;;;;;;2603134;54;20884;31
2023/01/11 09:35:34;;;;;;;9.48;2.90;;;5.80;99.90;;;;;;2603971;54;20889;31
2023/01/11 09:38:12;;;;;;;7.78;2.83;;;5.80;99.90;;;;;;2603656;54;20122;31
2023/01/11 09:40:53;;;;;;;11.18;3.20;;;5.90;99.90;;;;;;2603616;54;20926;31
2023/01/11 09:43:29;;;;;;;7.05;2.80;;;6.00;99.90;;;;;;2603841;54;20903;31
2023/01/11 09:46:07;;;;;;;10.23;3.00;;;6.10;99.90;;;;;;2773364;31;21410;31
2023/01/11 09:48:45;;;;;;;9.05;3.20;;;6.10;99.90;;;;;;2603529;54;20069;31
2023/01/11 09:51:21;;;;;;;8.88;2.50;;;6.10;99.90;;;;;;2603780;54;19941;31
2023/01/11 09:54:00;;;;;;;10.35;2.90;;;6.00;99.90;;;;;;2604031;54;20034;31
2023/01/11 09:56:41;;;;;;;8.02;3.20;;;6.00;99.90;;;;;;2603827;54;20833;31
2023/01/11 09:59:23;;;;;;;10.95;3.95;;;6.00;99.90;;;;;;2603448;54;20585;31
2023/01/11 10:02:02;;;;;;;8.77;3.80;;;6.00;99.90;;;;;;2603769;54;20061;31
2023/01/11 10:04:59;;;;;;;10.50;4.22;;;6.00;99.90;;;;;;2603705;54;20901;31
2023/01/11 10:07:36;;;;;;;8.75;2.85;;;6.00;99.90;;;;;;2773503;31;21429;31
2023/01/11 10:10:25;;;;;;;;;;;5.90;99.90;;;;;;2622228;46;20580;31
2023/01/11 10:13:30;;;;;;;8.48;3.35;;;5.90;99.90;;;;;;2603545;54;19941;31
2023/01/11 10:16:29;;;;;;;13.95;4.25;;;5.90;99.90;;;;;;2702165;39;21122;31
2023/01/11 10:19:29;;;;;;;7.50;3.05;;;6.00;99.90;;;;;;2603691;54;20022;31
2023/01/11 10:22:16;;;;;;;14.68;6.35;;;6.20;99.90;;;;;;2603575;54;20022;31
2023/01/11 10:24:55;;;;;;;11.95;6.05;;;6.40;99.90;;;;;;2603381;54;20850;31
2023/01/11 10:27:35;;;;;;;10.07;3.70;;;6.50;99.90;;;;;;2603544;54;20036;31
2023/01/11 10:30:32;;;;;;;9.95;3.15;;;6.50;99.90;;;;;;2603681;54;20257;31
2023/01/11 10:33:17;;;;;;;10.18;3.90;;;6.50;99.90;;;;;;2603459;54;20048;31
2023/01/11 10:36:13;;;;;;;8.60;3.25;;;6.50;99.90;;;;;;2603709;54;20549;31
2023/01/11 10:39:02;;;;;;;8.75;3.15;;;6.50;99.90;;;;;;2702145;39;21321;31
2023/01/11 10:41:41;;;;;;;9.18;3.60;;;6.50;99.90;;;;;;2720357;39;20516;31
2023/01/11 10:44:21;;;;;;;11.00;3.35;;;6.50;99.90;;;;;;2603298;54;21765;31
2023/01/11 10:46:59;;;;;;;7.72;3.03;;;6.60;99.90;;;;;;2603566;54;20113;31
2023/01/11 10:49:42;;;;;;;6.85;2.80;;;6.60;99.90;;;;;;2603814;54;20158;31
2023/01/11 10:52:25;;;;;;;8.13;3.08;;;6.70;99.90;;;;;;2603689;54;20153;31
2023/01/11 10:55:01;;;;;;;10.02;4.15;;;6.70;99.90;;;;;;2603383;54;20033;31
2023/01/11 10:57:43;;;;;;;9.57;3.13;;;6.70;99.90;;;;;;2603571;54;20892;31
2023/01/11 11:00:38;;;;;;;7.23;3.27;;;6.70;99.90;;;;;;2603446;54;20030;31
2023/01/11 11:03:30;;;;;;;9.40;3.50;;;6.70;99.90;;;;;;2603513;54;22227;31
2023/01/11 11:06:02;;;;;;;10.50;4.05;;;6.80;99.90;;;;;;2603374;54;22406;31
2023/01/11 11:08:45;;;;;;;12.07;3.47;;;6.80;99.90;;;;;;2603549;54;20573;31
2023/01/11 11:11:20;;;;;;;9.00;3.88;;;6.80;99.90;;;;;;2603355;54;22374;31
2023/01/11 11:13:59;;;;;;;10.07;3.53;;;6.80;99.90;;;;;;2621756;46;20150;31
2023/01/11 11:16:49;;;;;;;10.07;3.53;;;6.80;99.90;;;;;;2701829;39;20465;31
2023/01/11 11:19:31;;;;;;;8.30;3.05;;;6.90;99.90;;;;;;2603524;54;20723;31
2023/01/11 11:22:07;;;;;;;6.80;3.00;;;6.90;99.90;;;;;;2603456;54;20949;31
2023/01/11 11:24:46;;;;;;;6.97;2.90;;;6.90;99.90;;;;;;2603154;54;20040;31
2023/01/11 11:27:23;;;;;;;8.02;2.70;;;6.90;99.90;;;;;;2603482;54;19934;31
2023/01/11 11:29:59;;;;;;;7.07;2.42;;;6.90;99.90;;;;;;2621632;46;20820;31
2023/01/11 11:32:36;;;;;;;7.60;2.73;;;6.90;99.90;;;;;;2621628;46;20034;31
2023/01/11 11:35:31;;;;;;;6.25;3.00;;;6.90;99.90;;;;;;2603568;54;20822;31
2023/01/11 11:38:07;;;;;;;9.43;3.05;;;6.90;99.90;;;;;;2603292;54;20082;31
2023/01/11 11:40:45;;;;;;;6.60;3.08;;;7.00;99.90;;;;;;2603444;54;20928;31
2023/01/11 11:43:23;;;;;;;4.95;2.60;;;7.00;99.90;;;;;;2701716;39;20449;31
2023/01/11 11:45:59;;;;;;;8.90;2.20;;;7.10;99.90;;;;;;2603108;54;20910;31
2023/01/11 11:48:35;;;;;;;8.18;2.25;;;7.10;99.90;;;;;;2603472;54;20049;31
2023/01/11 11:51:14;;;;;;;8.63;1.67;;;7.20;99.90;;;;;;2603254;54;20931;31
2023/01/11 11:53:54;;;;;;;4.63;1.73;;;7.20;99.90;;;;;;2603469;54;20841;31
2023/01/11 11:56:32;;;;;;;6.97;2.40;;;7.30;99.90;;;;;;2603131;54;20918;31
2023/01/11 11:59:08;;;;;;;11.55;3.78;;;7.30;99.90;;;;;;2701760;39;20574;31
2023/01/11 12:01:45;;;;;;;7.53;2.90;;;7.40;99.90;;;;;;2603499;54;20808;31
2023/01/11 12:04:20;;;;;;;7.72;2.47;;;7.40;99.90;;;;;;2614630;46;21126;31
2023/01/11 12:07:07;;;;;;;8.50;2.75;;;7.40;99.90;;;;;;2603158;54;20826;31
2023/01/11 12:09:43;;;;;;;5.05;2.10;;;7.40;99.90;;;;;;2701779;39;20513;31
2023/01/11 12:12:24;;;;;;;6.90;2.20;;;7.40;99.90;;;;;;2603209;54;20057;31
2023/01/11 12:15:20;;;;;;;7.05;2.30;;;7.40;99.90;;;;;;2602941;54;20553;31
2023/01/11 12:17:56;;;;;;;7.65;2.30;;;7.40;99.90;;;;;;2602906;54;20802;31
2023/01/11 12:20:33;;;;;;;8.80;2.55;;;7.40;99.90;;;;;;2603435;54;20790;31
2023/01/11 12:23:15;;;;;;;7.07;2.40;;;7.50;99.90;;;;;;2603209;54;20266;31
2023/01/11 12:26:09;;;;;;;7.78;2.85;;;7.50;99.90;;;;;;2603268;54;20893;31
2023/01/11 12:29:01;;;;;;;11.05;2.25;;;7.50;99.90;;;;;;2603273;54;20026;31
2023/01/11 12:31:42;;;;;;;8.25;2.10;;;7.40;99.90;;;;;;2603227;54;20129;31
2023/01/11 12:34:24;;;;;;;6.65;2.33;;;7.50;99.90;;;;;;2603125;54;20052;31
2023/01/11 12:37:03;;;;;;;6.30;2.42;;;7.40;99.90;;;;;;2603037;54;20030;31
2023/01/11 12:39:41;;;;;;;6.18;2.70;;;7.50;99.90;;;;;;2603241;54;20573;31
2023/01/11 12:42:40;;;;;;;7.93;2.20;;;7.50;99.90;;;;;;2621520;46;20026;31
2023/01/11 12:45:24;;;;;;;4.35;1.90;;;7.50;99.90;;;;;;2602932;54;20777;31
2023/01/11 12:48:21;;;;;;;5.53;1.90;;;7.50;99.90;;;;;;2621502;46;20037;31
2023/01/11 12:51:02;;;;;;;5.95;1.92;;;7.50;99.90;;;;;;2603232;54;20786;31
2023/01/11 12:53:46;;;;;;;8.18;2.20;;;7.50;99.90;;;;;;2602972;54;20026;31
2023/01/11 12:56:34;;;;;;;6.80;2.50;;;7.50;99.90;;;;;;2621563;46;20030;31
2023/01/11 12:59:17;;;;;;;5.07;1.83;;;7.60;99.90;;;;;;2602885;54;20057;31
2023/01/11 13:04:57;;;;;;;5.00;2.00;;;7.50;99.90;;;;;;2701712;39;20533;31
2023/01/11 13:07:38;;;;;;;5.40;1.75;;;7.60;99.90;;;;;;2700931;39;20475;31
2023/01/11 13:10:19;;;;;;;5.22;1.65;;;7.60;99.90;;;;;;2603120;54;20665;31
2023/01/11 13:12:56;;;;;;;8.30;2.10;;;7.60;99.90;;;;;;2603153;54;20084;31
2023/01/11 13:15:34;;;;;;;6.13;2.00;;;7.60;99.90;;;;;;2613792;31;21155;31
2023/01/11 13:18:12;;;;;;;6.45;2.45;;;7.60;99.90;;;;;;2602927;54;20729;31
2023/01/11 13:20:54;;;;;;;9.35;1.88;;;7.60;99.90;;;;;;2602956;54;20034;31
2023/01/11 13:23:38;;;;;;;6.97;2.15;;;7.60;99.90;;;;;;2602963;54;20908;31
2023/01/11 13:26:21;;;;;;;5.38;2.03;;;7.60;99.90;;;;;;2602665;54;20906;31
2023/01/11 13:28:59;;;;;;;7.60;2.50;;;7.60;99.90;;;;;;2602945;54;20805;31
2023/01/11 13:31:34;;;;;;;4.93;1.60;;;7.60;99.90;;;;;;2602833;54;20888;31
2023/01/11 13:34:14;;;;;;;4.80;2.00;;;7.60;99.90;;;;;;2603098;54;20026;31
2023/01/11 13:36:55;;;;;;;6.40;2.50;;;7.50;99.90;;;;;;2603093;54;20802;31
2023/01/11 13:39:34;;;;;;;8.30;2.30;;;7.60;99.90;;;;;;2602919;54;20106;31
2023/01/11 13:42:15;;;;;;;9.38;2.75;;;7.50;99.90;;;;;;2602972;54;20045;31
2023/01/11 13:44:52;;;;;;;12.93;5.43;;;7.50;99.90;;;;;;2602933;54;20026;31
2023/01/11 13:47:31;;;;;;;8.63;4.15;;;7.50;99.90;;;;;;2602945;54;20813;31
2023/01/11 13:50:07;;;;;;;11.57;5.70;;;7.50;99.90;;;;;;2602860;54;20818;31
2023/01/11 13:52:52;;;;;;;8.02;4.35;;;7.50;99.90;;;;;;2602922;54;20929;31
2023/01/11 13:55:30;;;;;;;6.35;2.95;;;7.40;99.90;;;;;;2602977;54;20027;31
2023/01/11 13:58:06;;;;;;;13.13;5.97;;;7.40;99.90;;;;;;2602712;54;20870;31
2023/01/11 14:00:44;;;;;;;14.77;6.20;;;7.40;99.90;;;;;;2602962;54;20033;31
2023/01/11 14:03:24;;;;;;;15.38;9.65;;;7.40;99.90;;;;;;2602771;54;20038;31
2023/01/11 14:06:15;;;;;;;8.20;3.53;;;7.30;99.90;;;;;;2602756;54;20917;31
2023/01/11 14:09:06;;;;;;;8.68;3.30;;;7.30;99.90;;;;;;2602965;54;20046;31
2023/01/11 14:14:27;;;;;;;11.85;6.57;;;7.30;99.90;;;;;;2602100;54;20154;31
2023/01/11 14:17:12;;;;;;;7.75;3.22;;;7.20;99.90;;;;;;2602738;54;20943;31
2023/01/11 14:19:49;;;;;;;8.60;2.80;;;7.20;99.90;;;;;;2603226;54;20880;31
2023/01/11 14:22:28;;;;;;;8.45;2.72;;;7.20;99.90;;;;;;2603603;54;20049;31
2023/01/11 14:25:08;;;;;;;13.73;3.00;;;7.20;99.90;;;;;;2603561;54;20894;31
2023/01/11 14:28:05;;;;;;;9.15;3.50;;;7.20;99.90;;;;;;2603594;54;20029;31
2023/01/11 14:31:11;;;;;;;8.13;3.00;;;7.20;99.90;;;;;;2603469;54;20057;31
2023/01/11 14:34:28;;;;;;;7.40;2.45;;;7.20;99.90;;;;;;2603402;54;20569;31
2023/01/11 14:37:35;;;;;;;7.40;2.65;;;7.20;99.90;;;;;;2603347;54;20117;31
2023/01/11 14:40:36;;;;;;;6.25;2.30;;;7.10;99.90;;;;;;2622109;46;20046;31
2023/01/11 14:43:58;;;;;;;5.20;2.50;;;7.10;99.90;;;;;;2603646;54;20860;31
2023/01/11 14:46:55;;;;;;;4.55;2.35;;;7.10;99.90;;;;;;2603307;54;20133;31